sensor_id;sensor_type;location;lat;lon;timestamp;P1;durP1;ratioP1;P2;durP2;ratioP2
27847;SDS011;15212;48.830;8.730;2023-06-24T00:00:56;10.20;;;5.28;;
27847;SDS011;15212;48.830;8.730;2023-06-24T00:03:25;6.95;;;5.25;;
27847;SDS011;15212;48.830;8.730;2023-06-24T00:05:53;9.28;;;5.33;;
27847;SDS011;15212;48.830;8.730;2023-06-24T00:08:22;10.63;;;4.90;;
27847;SDS011;15212;48.830;8.730;2023-06-24T00:10:52;10.03;;;5.00;;
27847;SDS011;15212;48.830;8.730;2023-06-24T00:13:21;8.68;;;5.35;;
27847;SDS011;15212;48.830;8.730;2023-06-24T00:15:49;9.08;;;4.90;;
27847;SDS011;15212;48.830;8.730;2023-06-24T00:18:18;8.43;;;5.42;;
27847;SDS011;15212;48.830;8.730;2023-06-24T00:20:46;8.23;;;4.60;;
27847;SDS011;15212;48.830;8.730;2023-06-24T00:23:15;7.72;;;4.87;;
27847;SDS011;15212;48.830;8.730;2023-06-24T00:25:53;8.58;;;5.20;;
27847;SDS011;15212;48.830;8.730;2023-06-24T00:28:22;8.88;;;5.50;;
27847;SDS011;15212;48.830;8.730;2023-06-24T00:30:50;7.45;;;4.95;;
27847;SDS011;15212;48.830;8.730;2023-06-24T00:33:20;10.53;;;5.10;;
27847;SDS011;15212;48.830;8.730;2023-06-24T00:35:48;7.17;;;5.20;;
27847;SDS011;15212;48.830;8.730;2023-06-24T00:38:16;8.53;;;4.97;;
27847;SDS011;15212;48.830;8.730;2023-06-24T00:40:45;8.80;;;5.20;;
27847;SDS011;15212;48.830;8.730;2023-06-24T00:43:13;10.00;;;5.42;;
27847;SDS011;15212;48.830;8.730;2023-06-24T00:45:42;9.90;;;6.28;;
27847;SDS011;15212;48.830;8.730;2023-06-24T00:48:12;8.45;;;5.40;;
27847;SDS011;15212;48.830;8.730;2023-06-24T00:50:40;6.78;;;4.78;;
27847;SDS011;15212;48.830;8.730;2023-06-24T00:53:10;8.28;;;5.33;;
27847;SDS011;15212;48.830;8.730;2023-06-24T00:55:39;10.15;;;5.70;;
27847;SDS011;15212;48.830;8.730;2023-06-24T00:58:07;7.95;;;5.12;;
27847;SDS011;15212;48.830;8.730;2023-06-24T01:00:36;9.75;;;5.53;;
27847;SDS011;15212;48.830;8.730;2023-06-24T01:03:04;7.80;;;5.17;;
27847;SDS011;15212;48.830;8.730;2023-06-24T01:05:34;8.95;;;5.60;;
27847;SDS011;15212;48.830;8.730;2023-06-24T01:08:03;9.40;;;5.20;;
27847;SDS011;15212;48.830;8.730;2023-06-24T01:10:31;7.75;;;4.97;;
27847;SDS011;15212;48.830;8.730;2023-06-24T01:13:00;8.75;;;5.08;;
27847;SDS011;15212;48.830;8.730;2023-06-24T01:15:28;9.20;;;5.05;;
27847;SDS011;15212;48.830;8.730;2023-06-24T01:20:44;9.23;;;5.50;;
27847;SDS011;15212;48.830;8.730;2023-06-24T01:26:25;7.58;;;5.12;;
27847;SDS011;15212;48.830;8.730;2023-06-24T01:29:14;7.40;;;5.20;;
27847;SDS011;15212;48.830;8.730;2023-06-24T01:32:11;7.33;;;5.05;;
27847;SDS011;15212;48.830;8.730;2023-06-24T01:35:05;7.55;;;5.50;;
27847;SDS011;15212;48.830;8.730;2023-06-24T01:37:35;9.30;;;5.05;;
27847;SDS011;15212;48.830;8.730;2023-06-24T01:40:31;7.15;;;4.95;;
27847;SDS011;15212;48.830;8.730;2023-06-24T01:42:58;9.63;;;6.05;;
27847;SDS011;15212;48.830;8.730;2023-06-24T01:45:28;9.78;;;5.40;;
27847;SDS011;15212;48.830;8.730;2023-06-24T01:48:06;7.85;;;5.10;;
27847;SDS011;15212;48.830;8.730;2023-06-24T01:50:45;7.80;;;5.33;;
27847;SDS011;15212;48.830;8.730;2023-06-24T01:53:13;9.03;;;5.25;;
27847;SDS011;15212;48.830;8.730;2023-06-24T01:55:43;9.23;;;5.67;;
27847;SDS011;15212;48.830;8.730;2023-06-24T01:58:14;9.60;;;5.42;;
27847;SDS011;15212;48.830;8.730;2023-06-24T02:00:44;7.75;;;4.83;;
27847;SDS011;15212;48.830;8.730;2023-06-24T02:03:14;6.92;;;5.17;;
27847;SDS011;15212;48.830;8.730;2023-06-24T02:05:45;7.55;;;5.37;;
27847;SDS011;15212;48.830;8.730;2023-06-24T02:08:14;10.32;;;5.22;;
27847;SDS011;15212;48.830;8.730;2023-06-24T02:10:44;7.35;;;5.03;;
27847;SDS011;15212;48.830;8.730;2023-06-24T02:13:13;8.43;;;5.53;;
27847;SDS011;15212;48.830;8.730;2023-06-24T02:15:44;7.85;;;5.83;;
27847;SDS011;15212;48.830;8.730;2023-06-24T02:18:14;8.23;;;5.47;;
27847;SDS011;15212;48.830;8.730;2023-06-24T02:20:44;7.53;;;5.33;;
27847;SDS011;15212;48.830;8.730;2023-06-24T02:23:13;7.55;;;5.25;;
27847;SDS011;15212;48.830;8.730;2023-06-24T02:25:42;7.75;;;5.60;;
27847;SDS011;15212;48.830;8.730;2023-06-24T02:28:11;8.68;;;5.70;;
27847;SDS011;15212;48.830;8.730;2023-06-24T02:30:41;9.43;;;5.17;;
27847;SDS011;15212;48.830;8.730;2023-06-24T02:33:10;7.83;;;5.17;;
27847;SDS011;15212;48.830;8.730;2023-06-24T02:35:38;8.55;;;5.17;;
27847;SDS011;15212;48.830;8.730;2023-06-24T02:38:07;8.55;;;5.70;;
27847;SDS011;15212;48.830;8.730;2023-06-24T02:40:36;10.15;;;6.15;;
27847;SDS011;15212;48.830;8.730;2023-06-24T02:43:05;8.88;;;5.85;;
27847;SDS011;15212;48.830;8.730;2023-06-24T02:45:33;8.18;;;5.03;;
27847;SDS011;15212;48.830;8.730;2023-06-24T02:48:02;10.65;;;5.70;;
27847;SDS011;15212;48.830;8.730;2023-06-24T02:50:32;8.63;;;5.55;;
27847;SDS011;15212;48.830;8.730;2023-06-24T02:53:01;10.20;;;5.75;;
27847;SDS011;15212;48.830;8.730;2023-06-24T02:55:30;9.00;;;6.00;;
27847;SDS011;15212;48.830;8.730;2023-06-24T02:58:01;9.33;;;5.60;;
27847;SDS011;15212;48.830;8.730;2023-06-24T03:00:33;10.10;;;5.72;;
27847;SDS011;15212;48.830;8.730;2023-06-24T03:03:04;7.40;;;5.60;;
27847;SDS011;15212;48.830;8.730;2023-06-24T03:05:34;10.90;;;6.05;;
27847;SDS011;15212;48.830;8.730;2023-06-24T03:08:03;8.50;;;5.10;;
27847;SDS011;15212;48.830;8.730;2023-06-24T03:10:32;8.80;;;5.95;;
27847;SDS011;15212;48.830;8.730;2023-06-24T03:13:03;9.13;;;5.83;;
27847;SDS011;15212;48.830;8.730;2023-06-24T03:15:31;8.58;;;5.78;;
27847;SDS011;15212;48.830;8.730;2023-06-24T03:18:00;9.70;;;5.90;;
27847;SDS011;15212;48.830;8.730;2023-06-24T03:20:28;9.53;;;5.25;;
27847;SDS011;15212;48.830;8.730;2023-06-24T03:22:58;9.15;;;5.90;;
27847;SDS011;15212;48.830;8.730;2023-06-24T03:25:27;9.05;;;5.85;;
27847;SDS011;15212;48.830;8.730;2023-06-24T03:27:55;9.23;;;5.70;;
27847;SDS011;15212;48.830;8.730;2023-06-24T03:30:24;9.03;;;5.75;;
27847;SDS011;15212;48.830;8.730;2023-06-24T03:32:53;9.13;;;6.05;;
27847;SDS011;15212;48.830;8.730;2023-06-24T03:35:21;10.08;;;5.85;;
27847;SDS011;15212;48.830;8.730;2023-06-24T03:37:50;8.88;;;6.05;;
27847;SDS011;15212;48.830;8.730;2023-06-24T03:40:18;9.73;;;6.67;;
27847;SDS011;15212;48.830;8.730;2023-06-24T03:42:47;12.23;;;6.05;;
27847;SDS011;15212;48.830;8.730;2023-06-24T03:45:16;9.63;;;6.28;;
27847;SDS011;15212;48.830;8.730;2023-06-24T03:47:44;9.83;;;6.22;;
27847;SDS011;15212;48.830;8.730;2023-06-24T03:50:12;8.88;;;5.95;;
27847;SDS011;15212;48.830;8.730;2023-06-24T03:52:41;9.45;;;5.92;;
27847;SDS011;15212;48.830;8.730;2023-06-24T03:55:11;10.68;;;6.33;;
27847;SDS011;15212;48.830;8.730;2023-06-24T03:57:39;9.53;;;6.58;;
27847;SDS011;15212;48.830;8.730;2023-06-24T04:00:08;9.43;;;6.17;;
27847;SDS011;15212;48.830;8.730;2023-06-24T04:02:41;8.15;;;6.22;;
27847;SDS011;15212;48.830;8.730;2023-06-24T04:05:11;8.70;;;5.50;;
27847;SDS011;15212;48.830;8.730;2023-06-24T04:07:39;10.25;;;6.53;;
27847;SDS011;15212;48.830;8.730;2023-06-24T04:10:09;10.53;;;5.80;;
27847;SDS011;15212;48.830;8.730;2023-06-24T04:12:38;7.97;;;5.30;;
27847;SDS011;15212;48.830;8.730;2023-06-24T04:15:07;8.30;;;5.33;;
27847;SDS011;15212;48.830;8.730;2023-06-24T04:17:35;10.48;;;5.78;;
27847;SDS011;15212;48.830;8.730;2023-06-24T04:20:04;7.87;;;5.60;;
27847;SDS011;15212;48.830;8.730;2023-06-24T04:22:35;7.55;;;5.80;;
27847;SDS011;15212;48.830;8.730;2023-06-24T04:25:10;10.85;;;5.80;;
27847;SDS011;15212;48.830;8.730;2023-06-24T04:27:35;8.55;;;5.62;;
27847;SDS011;15212;48.830;8.730;2023-06-24T04:30:04;12.58;;;6.17;;
27847;SDS011;15212;48.830;8.730;2023-06-24T04:32:33;8.43;;;5.95;;
27847;SDS011;15212;48.830;8.730;2023-06-24T04:35:01;10.03;;;6.35;;
27847;SDS011;15212;48.830;8.730;2023-06-24T04:37:30;10.95;;;6.30;;
27847;SDS011;15212;48.830;8.730;2023-06-24T04:39:58;9.10;;;5.97;;
27847;SDS011;15212;48.830;8.730;2023-06-24T04:42:27;8.20;;;6.03;;
27847;SDS011;15212;48.830;8.730;2023-06-24T04:44:55;8.78;;;5.67;;
27847;SDS011;15212;48.830;8.730;2023-06-24T04:47:24;9.23;;;6.28;;
27847;SDS011;15212;48.830;8.730;2023-06-24T04:49:52;10.15;;;6.05;;
27847;SDS011;15212;48.830;8.730;2023-06-24T04:52:21;8.05;;;6.28;;
27847;SDS011;15212;48.830;8.730;2023-06-24T04:54:51;11.70;;;6.20;;
27847;SDS011;15212;48.830;8.730;2023-06-24T04:57:23;8.48;;;6.17;;
27847;SDS011;15212;48.830;8.730;2023-06-24T04:59:56;9.80;;;6.10;;
27847;SDS011;15212;48.830;8.730;2023-06-24T05:02:25;8.13;;;5.85;;
27847;SDS011;15212;48.830;8.730;2023-06-24T05:04:54;9.23;;;6.33;;
27847;SDS011;15212;48.830;8.730;2023-06-24T05:07:22;10.43;;;7.05;;
27847;SDS011;15212;48.830;8.730;2023-06-24T05:09:50;10.72;;;6.12;;
27847;SDS011;15212;48.830;8.730;2023-06-24T05:12:19;7.12;;;5.20;;
27847;SDS011;15212;48.830;8.730;2023-06-24T05:14:51;8.05;;;5.67;;
27847;SDS011;15212;48.830;8.730;2023-06-24T05:17:19;9.35;;;6.08;;
27847;SDS011;15212;48.830;8.730;2023-06-24T05:19:48;9.03;;;6.10;;
27847;SDS011;15212;48.830;8.730;2023-06-24T05:22:16;8.28;;;5.87;;
27847;SDS011;15212;48.830;8.730;2023-06-24T05:24:44;7.35;;;5.62;;
27847;SDS011;15212;48.830;8.730;2023-06-24T05:27:13;8.15;;;5.55;;
27847;SDS011;15212;48.830;8.730;2023-06-24T05:29:43;8.15;;;5.37;;
27847;SDS011;15212;48.830;8.730;2023-06-24T05:32:11;9.00;;;5.58;;
27847;SDS011;15212;48.830;8.730;2023-06-24T05:34:40;7.58;;;5.75;;
27847;SDS011;15212;48.830;8.730;2023-06-24T05:37:08;11.78;;;5.80;;
27847;SDS011;15212;48.830;8.730;2023-06-24T05:39:36;6.60;;;5.15;;
27847;SDS011;15212;48.830;8.730;2023-06-24T05:42:05;8.68;;;5.35;;
27847;SDS011;15212;48.830;8.730;2023-06-24T05:44:34;8.40;;;4.92;;
27847;SDS011;15212;48.830;8.730;2023-06-24T05:47:02;10.18;;;5.30;;
27847;SDS011;15212;48.830;8.730;2023-06-24T05:49:31;9.38;;;5.15;;
27847;SDS011;15212;48.830;8.730;2023-06-24T05:51:59;6.70;;;5.00;;
27847;SDS011;15212;48.830;8.730;2023-06-24T05:54:29;6.03;;;4.65;;
27847;SDS011;15212;48.830;8.730;2023-06-24T05:56:57;10.18;;;4.87;;
27847;SDS011;15212;48.830;8.730;2023-06-24T05:59:26;6.92;;;5.17;;
27847;SDS011;15212;48.830;8.730;2023-06-24T06:01:54;7.97;;;4.85;;
27847;SDS011;15212;48.830;8.730;2023-06-24T06:04:22;7.40;;;5.00;;
27847;SDS011;15212;48.830;8.730;2023-06-24T06:06:51;7.83;;;3.95;;
27847;SDS011;15212;48.830;8.730;2023-06-24T06:09:19;6.25;;;3.75;;
27847;SDS011;15212;48.830;8.730;2023-06-24T06:11:49;5.05;;;3.70;;
27847;SDS011;15212;48.830;8.730;2023-06-24T06:14:17;6.83;;;3.62;;
27847;SDS011;15212;48.830;8.730;2023-06-24T06:16:46;4.30;;;3.52;;
27847;SDS011;15212;48.830;8.730;2023-06-24T06:19:14;4.37;;;3.62;;
27847;SDS011;15212;48.830;8.730;2023-06-24T06:21:42;4.10;;;3.45;;
27847;SDS011;15212;48.830;8.730;2023-06-24T06:24:11;4.00;;;3.40;;
27847;SDS011;15212;48.830;8.730;2023-06-24T06:26:45;6.55;;;3.50;;
27847;SDS011;15212;48.830;8.730;2023-06-24T06:29:10;4.17;;;3.02;;
27847;SDS011;15212;48.830;8.730;2023-06-24T06:31:39;6.03;;;3.25;;
27847;SDS011;15212;48.830;8.730;2023-06-24T06:34:07;5.08;;;3.20;;
27847;SDS011;15212;48.830;8.730;2023-06-24T06:36:35;4.37;;;3.33;;
27847;SDS011;15212;48.830;8.730;2023-06-24T06:39:04;5.37;;;3.85;;
27847;SDS011;15212;48.830;8.730;2023-06-24T06:41:32;4.35;;;3.45;;
27847;SDS011;15212;48.830;8.730;2023-06-24T06:44:00;4.55;;;3.60;;
27847;SDS011;15212;48.830;8.730;2023-06-24T06:46:29;4.03;;;3.33;;
27847;SDS011;15212;48.830;8.730;2023-06-24T06:48:57;7.12;;;3.60;;
27847;SDS011;15212;48.830;8.730;2023-06-24T06:51:26;4.17;;;3.60;;
27847;SDS011;15212;48.830;8.730;2023-06-24T06:53:54;5.65;;;3.87;;
27847;SDS011;15212;48.830;8.730;2023-06-24T06:56:23;4.35;;;3.33;;
27847;SDS011;15212;48.830;8.730;2023-06-24T06:58:52;5.08;;;3.35;;
27847;SDS011;15212;48.830;8.730;2023-06-24T07:01:20;5.90;;;3.22;;
27847;SDS011;15212;48.830;8.730;2023-06-24T07:03:49;6.92;;;3.37;;
27847;SDS011;15212;48.830;8.730;2023-06-24T07:06:18;8.38;;;3.60;;
27847;SDS011;15212;48.830;8.730;2023-06-24T07:08:47;9.28;;;4.00;;
27847;SDS011;15212;48.830;8.730;2023-06-24T07:11:15;14.40;;;6.45;;
27847;SDS011;15212;48.830;8.730;2023-06-24T07:13:43;9.53;;;4.50;;
27847;SDS011;15212;48.830;8.730;2023-06-24T07:16:12;5.33;;;3.60;;
27847;SDS011;15212;48.830;8.730;2023-06-24T07:18:40;6.75;;;3.55;;
27847;SDS011;15212;48.830;8.730;2023-06-24T07:21:09;8.95;;;4.10;;
27847;SDS011;15212;48.830;8.730;2023-06-24T07:23:37;4.17;;;3.60;;
27847;SDS011;15212;48.830;8.730;2023-06-24T07:26:05;4.97;;;3.87;;
27847;SDS011;15212;48.830;8.730;2023-06-24T07:28:34;6.30;;;3.55;;
27847;SDS011;15212;48.830;8.730;2023-06-24T07:31:02;4.42;;;3.58;;
27847;SDS011;15212;48.830;8.730;2023-06-24T07:33:31;4.47;;;3.15;;
27847;SDS011;15212;48.830;8.730;2023-06-24T07:36:01;5.03;;;3.45;;
27847;SDS011;15212;48.830;8.730;2023-06-24T07:38:30;4.40;;;3.27;;
27847;SDS011;15212;48.830;8.730;2023-06-24T07:40:58;4.87;;;3.40;;
27847;SDS011;15212;48.830;8.730;2023-06-24T07:43:27;4.58;;;3.60;;
27847;SDS011;15212;48.830;8.730;2023-06-24T07:45:55;4.67;;;3.58;;
27847;SDS011;15212;48.830;8.730;2023-06-24T07:48:23;4.95;;;3.60;;
27847;SDS011;15212;48.830;8.730;2023-06-24T07:50:52;6.72;;;3.55;;
27847;SDS011;15212;48.830;8.730;2023-06-24T07:53:20;5.72;;;3.30;;
27847;SDS011;15212;48.830;8.730;2023-06-24T07:55:48;5.65;;;3.15;;
27847;SDS011;15212;48.830;8.730;2023-06-24T07:58:17;4.55;;;3.15;;
27847;SDS011;15212;48.830;8.730;2023-06-24T08:00:45;3.72;;;3.02;;
27847;SDS011;15212;48.830;8.730;2023-06-24T08:03:14;4.92;;;3.17;;
27847;SDS011;15212;48.830;8.730;2023-06-24T08:05:42;6.33;;;3.60;;
27847;SDS011;15212;48.830;8.730;2023-06-24T08:08:11;4.47;;;3.42;;
27847;SDS011;15212;48.830;8.730;2023-06-24T08:10:39;6.33;;;3.50;;
27847;SDS011;15212;48.830;8.730;2023-06-24T08:13:07;5.45;;;3.50;;
27847;SDS011;15212;48.830;8.730;2023-06-24T08:15:36;4.17;;;3.10;;
27847;SDS011;15212;48.830;8.730;2023-06-24T08:18:04;5.67;;;3.40;;
27847;SDS011;15212;48.830;8.730;2023-06-24T08:20:32;4.10;;;2.80;;
27847;SDS011;15212;48.830;8.730;2023-06-24T08:23:01;5.97;;;2.87;;
27847;SDS011;15212;48.830;8.730;2023-06-24T08:25:29;4.20;;;3.02;;
27847;SDS011;15212;48.830;8.730;2023-06-24T08:27:58;4.58;;;2.98;;
27847;SDS011;15212;48.830;8.730;2023-06-24T08:30:26;4.85;;;2.87;;
27847;SDS011;15212;48.830;8.730;2023-06-24T08:32:55;5.35;;;3.33;;
27847;SDS011;15212;48.830;8.730;2023-06-24T08:35:23;5.90;;;3.47;;
27847;SDS011;15212;48.830;8.730;2023-06-24T08:37:52;7.35;;;3.80;;
27847;SDS011;15212;48.830;8.730;2023-06-24T08:40:20;6.10;;;3.70;;
27847;SDS011;15212;48.830;8.730;2023-06-24T08:42:49;6.92;;;3.83;;
27847;SDS011;15212;48.830;8.730;2023-06-24T08:45:17;5.33;;;3.47;;
27847;SDS011;15212;48.830;8.730;2023-06-24T08:47:46;4.15;;;3.10;;
27847;SDS011;15212;48.830;8.730;2023-06-24T08:50:17;4.08;;;2.87;;
27847;SDS011;15212;48.830;8.730;2023-06-24T08:52:48;4.60;;;3.17;;
27847;SDS011;15212;48.830;8.730;2023-06-24T08:55:19;4.25;;;3.10;;
27847;SDS011;15212;48.830;8.730;2023-06-24T08:57:50;5.78;;;3.22;;
27847;SDS011;15212;48.830;8.730;2023-06-24T09:00:18;5.58;;;3.12;;
27847;SDS011;15212;48.830;8.730;2023-06-24T09:02:47;5.50;;;2.90;;
27847;SDS011;15212;48.830;8.730;2023-06-24T09:05:15;4.15;;;3.27;;
27847;SDS011;15212;48.830;8.730;2023-06-24T09:07:44;9.30;;;3.22;;
27847;SDS011;15212;48.830;8.730;2023-06-24T09:10:28;3.70;;;2.60;;
27847;SDS011;15212;48.830;8.730;2023-06-24T09:13:02;5.87;;;3.35;;
27847;SDS011;15212;48.830;8.730;2023-06-24T09:15:33;5.75;;;3.30;;
27847;SDS011;15212;48.830;8.730;2023-06-24T09:18:04;3.98;;;2.92;;
27847;SDS011;15212;48.830;8.730;2023-06-24T09:20:32;5.17;;;3.10;;
27847;SDS011;15212;48.830;8.730;2023-06-24T09:23:03;4.53;;;3.00;;
27847;SDS011;15212;48.830;8.730;2023-06-24T09:25:31;4.90;;;3.45;;
27847;SDS011;15212;48.830;8.730;2023-06-24T09:28:00;3.87;;;3.12;;
27847;SDS011;15212;48.830;8.730;2023-06-24T09:30:29;5.03;;;3.15;;
27847;SDS011;15212;48.830;8.730;2023-06-24T09:32:57;6.45;;;3.37;;
27847;SDS011;15212;48.830;8.730;2023-06-24T09:35:26;3.85;;;2.80;;
27847;SDS011;15212;48.830;8.730;2023-06-24T09:37:57;5.05;;;3.22;;
27847;SDS011;15212;48.830;8.730;2023-06-24T09:40:25;5.83;;;3.60;;
27847;SDS011;15212;48.830;8.730;2023-06-24T09:42:55;6.00;;;3.70;;
27847;SDS011;15212;48.830;8.730;2023-06-24T09:45:29;5.75;;;3.62;;
27847;SDS011;15212;48.830;8.730;2023-06-24T09:47:58;4.22;;;3.25;;
27847;SDS011;15212;48.830;8.730;2023-06-24T09:50:26;4.33;;;3.10;;
27847;SDS011;15212;48.830;8.730;2023-06-24T09:52:56;7.45;;;3.00;;
27847;SDS011;15212;48.830;8.730;2023-06-24T09:55:25;4.00;;;2.90;;
27847;SDS011;15212;48.830;8.730;2023-06-24T09:57:55;4.85;;;3.27;;
27847;SDS011;15212;48.830;8.730;2023-06-24T10:00:24;4.22;;;3.00;;
27847;SDS011;15212;48.830;8.730;2023-06-24T10:02:53;4.20;;;2.95;;
27847;SDS011;15212;48.830;8.730;2023-06-24T10:05:22;3.90;;;3.02;;
27847;SDS011;15212;48.830;8.730;2023-06-24T10:07:50;3.95;;;2.83;;
27847;SDS011;15212;48.830;8.730;2023-06-24T10:10:19;5.17;;;2.80;;
27847;SDS011;15212;48.830;8.730;2023-06-24T10:12:47;5.50;;;2.80;;
27847;SDS011;15212;48.830;8.730;2023-06-24T10:15:16;4.67;;;2.80;;
27847;SDS011;15212;48.830;8.730;2023-06-24T10:17:44;3.72;;;2.65;;
27847;SDS011;15212;48.830;8.730;2023-06-24T10:20:13;3.10;;;2.42;;
27847;SDS011;15212;48.830;8.730;2023-06-24T10:22:45;3.95;;;2.95;;
27847;SDS011;15212;48.830;8.730;2023-06-24T10:25:14;5.70;;;3.00;;
27847;SDS011;15212;48.830;8.730;2023-06-24T10:27:44;4.17;;;2.90;;
27847;SDS011;15212;48.830;8.730;2023-06-24T10:30:18;4.05;;;2.80;;
27847;SDS011;15212;48.830;8.730;2023-06-24T10:32:52;4.80;;;2.95;;
27847;SDS011;15212;48.830;8.730;2023-06-24T10:35:22;3.70;;;2.75;;
27847;SDS011;15212;48.830;8.730;2023-06-24T10:37:56;3.60;;;2.77;;
27847;SDS011;15212;48.830;8.730;2023-06-24T10:40:39;4.65;;;2.90;;
27847;SDS011;15212;48.830;8.730;2023-06-24T10:43:25;4.40;;;3.00;;
27847;SDS011;15212;48.830;8.730;2023-06-24T10:45:56;3.55;;;2.67;;
27847;SDS011;15212;48.830;8.730;2023-06-24T10:48:25;4.67;;;2.87;;
27847;SDS011;15212;48.830;8.730;2023-06-24T10:50:53;4.42;;;3.12;;
27847;SDS011;15212;48.830;8.730;2023-06-24T10:53:22;4.60;;;2.83;;
27847;SDS011;15212;48.830;8.730;2023-06-24T10:55:50;3.90;;;3.00;;
27847;SDS011;15212;48.830;8.730;2023-06-24T10:58:18;4.15;;;2.60;;
27847;SDS011;15212;48.830;8.730;2023-06-24T11:00:47;3.40;;;2.42;;
27847;SDS011;15212;48.830;8.730;2023-06-24T11:03:16;4.00;;;3.02;;
27847;SDS011;15212;48.830;8.730;2023-06-24T11:05:46;3.70;;;2.65;;
27847;SDS011;15212;48.830;8.730;2023-06-24T11:08:16;3.98;;;2.95;;
27847;SDS011;15212;48.830;8.730;2023-06-24T11:10:48;4.05;;;2.80;;
27847;SDS011;15212;48.830;8.730;2023-06-24T11:13:19;6.70;;;3.00;;
27847;SDS011;15212;48.830;8.730;2023-06-24T11:15:48;3.77;;;2.40;;
27847;SDS011;15212;48.830;8.730;2023-06-24T11:18:16;3.17;;;2.30;;
27847;SDS011;15212;48.830;8.730;2023-06-24T11:20:44;4.33;;;2.65;;
27847;SDS011;15212;48.830;8.730;2023-06-24T11:23:13;4.37;;;2.85;;
27847;SDS011;15212;48.830;8.730;2023-06-24T11:25:42;4.78;;;2.80;;
27847;SDS011;15212;48.830;8.730;2023-06-24T11:28:14;6.12;;;2.80;;
27847;SDS011;15212;48.830;8.730;2023-06-24T11:30:44;6.15;;;2.98;;
27847;SDS011;15212;48.830;8.730;2023-06-24T11:33:13;3.10;;;2.33;;
27847;SDS011;15212;48.830;8.730;2023-06-24T11:35:44;6.53;;;3.37;;
27847;SDS011;15212;48.830;8.730;2023-06-24T11:38:13;5.55;;;2.90;;
27847;SDS011;15212;48.830;8.730;2023-06-24T11:40:41;4.33;;;2.98;;
27847;SDS011;15212;48.830;8.730;2023-06-24T11:43:10;4.85;;;2.50;;
27847;SDS011;15212;48.830;8.730;2023-06-24T11:45:39;3.72;;;2.40;;
27847;SDS011;15212;48.830;8.730;2023-06-24T11:48:08;5.12;;;2.40;;
27847;SDS011;15212;48.830;8.730;2023-06-24T11:50:36;3.10;;;2.10;;
27847;SDS011;15212;48.830;8.730;2023-06-24T11:53:04;4.58;;;2.87;;
27847;SDS011;15212;48.830;8.730;2023-06-24T11:55:33;6.03;;;2.77;;
27847;SDS011;15212;48.830;8.730;2023-06-24T11:58:02;4.75;;;3.20;;
27847;SDS011;15212;48.830;8.730;2023-06-24T12:00:32;4.03;;;2.87;;
27847;SDS011;15212;48.830;8.730;2023-06-24T12:03:11;6.17;;;3.27;;
27847;SDS011;15212;48.830;8.730;2023-06-24T12:05:40;4.08;;;2.60;;
27847;SDS011;15212;48.830;8.730;2023-06-24T12:08:10;3.60;;;2.60;;
27847;SDS011;15212;48.830;8.730;2023-06-24T12:10:41;3.80;;;2.70;;
27847;SDS011;15212;48.830;8.730;2023-06-24T12:13:11;5.47;;;2.80;;
27847;SDS011;15212;48.830;8.730;2023-06-24T12:15:40;4.03;;;2.90;;
27847;SDS011;15212;48.830;8.730;2023-06-24T12:18:09;4.65;;;2.60;;
27847;SDS011;15212;48.830;8.730;2023-06-24T12:20:39;5.08;;;3.00;;
27847;SDS011;15212;48.830;8.730;2023-06-24T12:23:09;6.20;;;3.08;;
27847;SDS011;15212;48.830;8.730;2023-06-24T12:25:37;3.95;;;2.83;;
27847;SDS011;15212;48.830;8.730;2023-06-24T12:28:06;5.62;;;2.98;;
27847;SDS011;15212;48.830;8.730;2023-06-24T12:30:34;3.62;;;2.55;;
27847;SDS011;15212;48.830;8.730;2023-06-24T12:33:02;6.33;;;2.40;;
27847;SDS011;15212;48.830;8.730;2023-06-24T12:35:32;3.90;;;2.40;;
27847;SDS011;15212;48.830;8.730;2023-06-24T12:38:01;4.15;;;2.45;;
27847;SDS011;15212;48.830;8.730;2023-06-24T12:40:29;3.87;;;2.67;;
27847;SDS011;15212;48.830;8.730;2023-06-24T12:42:58;2.62;;;2.08;;
27847;SDS011;15212;48.830;8.730;2023-06-24T12:45:26;4.87;;;2.60;;
27847;SDS011;15212;48.830;8.730;2023-06-24T12:47:54;4.30;;;2.70;;
27847;SDS011;15212;48.830;8.730;2023-06-24T12:50:23;3.35;;;2.50;;
27847;SDS011;15212;48.830;8.730;2023-06-24T12:52:51;3.35;;;2.25;;
27847;SDS011;15212;48.830;8.730;2023-06-24T12:55:19;3.95;;;2.42;;
27847;SDS011;15212;48.830;8.730;2023-06-24T12:57:48;3.08;;;2.33;;
27847;SDS011;15212;48.830;8.730;2023-06-24T13:00:19;4.00;;;2.40;;
27847;SDS011;15212;48.830;8.730;2023-06-24T13:02:47;3.72;;;2.40;;
27847;SDS011;15212;48.830;8.730;2023-06-24T13:05:17;3.42;;;2.42;;
27847;SDS011;15212;48.830;8.730;2023-06-24T13:07:45;4.90;;;2.50;;
27847;SDS011;15212;48.830;8.730;2023-06-24T13:10:13;4.17;;;2.62;;
27847;SDS011;15212;48.830;8.730;2023-06-24T13:12:42;3.83;;;2.50;;
27847;SDS011;15212;48.830;8.730;2023-06-24T13:15:10;11.60;;;7.22;;
27847;SDS011;15212;48.830;8.730;2023-06-24T13:17:39;3.55;;;2.70;;
27847;SDS011;15212;48.830;8.730;2023-06-24T13:20:07;4.08;;;2.45;;
27847;SDS011;15212;48.830;8.730;2023-06-24T13:22:36;5.28;;;2.52;;
27847;SDS011;15212;48.830;8.730;2023-06-24T13:25:05;4.03;;;2.42;;
27847;SDS011;15212;48.830;8.730;2023-06-24T13:27:34;4.03;;;2.52;;
27847;SDS011;15212;48.830;8.730;2023-06-24T13:30:02;4.70;;;2.37;;
27847;SDS011;15212;48.830;8.730;2023-06-24T13:32:31;3.40;;;2.40;;
27847;SDS011;15212;48.830;8.730;2023-06-24T13:34:59;4.40;;;2.30;;
27847;SDS011;15212;48.830;8.730;2023-06-24T13:37:28;3.47;;;2.50;;
27847;SDS011;15212;48.830;8.730;2023-06-24T13:39:56;3.45;;;2.50;;
27847;SDS011;15212;48.830;8.730;2023-06-24T13:42:24;3.58;;;2.70;;
27847;SDS011;15212;48.830;8.730;2023-06-24T13:44:53;4.25;;;2.42;;
27847;SDS011;15212;48.830;8.730;2023-06-24T13:47:21;3.58;;;2.47;;
27847;SDS011;15212;48.830;8.730;2023-06-24T13:49:49;3.42;;;2.22;;
27847;SDS011;15212;48.830;8.730;2023-06-24T13:52:18;3.75;;;2.40;;
27847;SDS011;15212;48.830;8.730;2023-06-24T13:54:46;3.50;;;2.58;;
27847;SDS011;15212;48.830;8.730;2023-06-24T13:57:16;7.35;;;2.72;;
27847;SDS011;15212;48.830;8.730;2023-06-24T13:59:44;3.62;;;2.42;;
27847;SDS011;15212;48.830;8.730;2023-06-24T14:02:13;3.08;;;2.40;;
27847;SDS011;15212;48.830;8.730;2023-06-24T14:04:41;3.25;;;2.70;;
27847;SDS011;15212;48.830;8.730;2023-06-24T14:07:10;3.62;;;2.30;;
27847;SDS011;15212;48.830;8.730;2023-06-24T14:09:38;4.03;;;2.55;;
27847;SDS011;15212;48.830;8.730;2023-06-24T14:12:07;4.55;;;2.55;;
27847;SDS011;15212;48.830;8.730;2023-06-24T14:14:36;3.85;;;2.58;;
27847;SDS011;15212;48.830;8.730;2023-06-24T14:17:05;3.22;;;2.47;;
27847;SDS011;15212;48.830;8.730;2023-06-24T14:19:38;4.15;;;2.70;;
27847;SDS011;15212;48.830;8.730;2023-06-24T14:22:07;3.42;;;2.17;;
27847;SDS011;15212;48.830;8.730;2023-06-24T14:24:36;4.62;;;2.70;;
27847;SDS011;15212;48.830;8.730;2023-06-24T14:27:05;4.03;;;2.60;;
27847;SDS011;15212;48.830;8.730;2023-06-24T14:29:34;3.30;;;2.47;;
27847;SDS011;15212;48.830;8.730;2023-06-24T14:32:02;3.80;;;2.42;;
27847;SDS011;15212;48.830;8.730;2023-06-24T14:34:31;4.22;;;2.90;;
27847;SDS011;15212;48.830;8.730;2023-06-24T14:36:59;4.58;;;2.83;;
27847;SDS011;15212;48.830;8.730;2023-06-24T14:39:28;3.15;;;2.40;;
27847;SDS011;15212;48.830;8.730;2023-06-24T14:41:56;4.08;;;2.47;;
27847;SDS011;15212;48.830;8.730;2023-06-24T14:44:25;3.35;;;2.50;;
27847;SDS011;15212;48.830;8.730;2023-06-24T14:46:53;3.75;;;2.87;;
27847;SDS011;15212;48.830;8.730;2023-06-24T14:49:21;4.12;;;2.67;;
27847;SDS011;15212;48.830;8.730;2023-06-24T14:51:51;5.22;;;2.60;;
27847;SDS011;15212;48.830;8.730;2023-06-24T14:54:19;4.10;;;2.80;;
27847;SDS011;15212;48.830;8.730;2023-06-24T14:56:48;5.87;;;3.33;;
27847;SDS011;15212;48.830;8.730;2023-06-24T14:59:17;3.35;;;2.40;;
27847;SDS011;15212;48.830;8.730;2023-06-24T15:01:45;5.42;;;2.67;;
27847;SDS011;15212;48.830;8.730;2023-06-24T15:04:13;5.33;;;3.20;;